createdAt,value
2022-10-18T00:12:52.663Z,17.5
2022-10-18T00:27:26.284Z,17.4
2022-10-18T00:41:59.890Z,17.4
2022-10-18T00:56:33.499Z,17.4
2022-10-18T01:11:07.122Z,17.1
2022-10-18T01:25:39.731Z,17.1
2022-10-18T01:40:13.593Z,17
2022-10-18T01:54:47.972Z,17.4
2022-10-18T02:09:38.059Z,17.4
2022-10-18T02:24:02.661Z,17.4
2022-10-18T02:38:41.057Z,16.8
2022-10-18T02:53:10.620Z,17.1
2022-10-18T03:07:44.038Z,17.1
2022-10-18T03:22:22.994Z,16.8
2022-10-18T03:36:52.566Z,16.7
2022-10-18T03:51:25.746Z,16.8
2022-10-18T04:05:59.666Z,16.8
2022-10-18T04:20:32.887Z,16.7
2022-10-18T04:35:06.068Z,16.6
2022-10-18T04:49:39.629Z,16.3
2022-10-18T05:04:12.771Z,16.4
2022-10-18T05:18:47.036Z,16.5
2022-10-18T05:33:20.129Z,16.5
2022-10-18T05:47:53.241Z,16.5
2022-10-18T06:02:32.982Z,16.5
2022-10-18T06:17:08.669Z,16.4
2022-10-18T06:31:37.821Z,16.4
2022-10-18T06:46:11.695Z,16.5
2022-10-18T07:00:44.556Z,16.4
2022-10-18T07:15:22.267Z,16.5
2022-10-18T07:29:49.858Z,16.5
2022-10-18T07:44:20.985Z,16.6
2022-10-18T07:59:02.261Z,16.7
2022-10-18T08:13:38.646Z,16.8
2022-10-18T08:28:08.883Z,16.7
2022-10-18T08:42:43.165Z,16.8
2022-10-18T08:57:15.864Z,17
2022-10-18T09:11:49.627Z,17
2022-10-18T09:26:23.696Z,17.2
2022-10-18T09:40:57.315Z,17.3
2022-10-18T09:55:30.909Z,17.3
2022-10-18T10:10:04.858Z,17.4
2022-10-18T10:24:37.361Z,17.6
2022-10-18T10:39:18.835Z,18
2022-10-18T10:53:54.980Z,18.4
2022-10-18T11:08:32.156Z,18.4
2022-10-18T11:23:10.334Z,19.1
2022-10-18T11:37:39.158Z,18.4
2022-10-18T11:52:10.846Z,18.3
2022-10-18T12:06:45.751Z,19.3
2022-10-18T12:21:26.684Z,19.3
2022-10-18T12:35:55.534Z,18.2
2022-10-18T12:50:27.619Z,18.3
2022-10-18T13:05:55.482Z,18.5
2022-10-18T13:20:28.303Z,18.1
2022-10-18T13:34:52.249Z,18.4
2022-10-18T13:49:24.359Z,17.6
2022-10-18T14:04:02.271Z,17.2
2022-10-18T14:18:32.431Z,17.8
2022-10-18T14:33:12.488Z,16.9
2022-10-18T14:47:40.629Z,17
2022-10-18T15:02:13.413Z,16.6
2022-10-18T15:16:45.533Z,17
2022-10-18T15:31:20.046Z,15.8
2022-10-18T15:45:52.224Z,16
2022-10-18T16:00:25.312Z,16.8
2022-10-18T16:14:55.142Z,16
2022-10-18T16:29:33.174Z,15.7
2022-10-18T16:44:06.636Z,15.1
2022-10-18T16:58:34.477Z,14.6
2022-10-18T17:13:06.238Z,14.4
2022-10-18T17:27:38.991Z,13.9
2022-10-18T17:42:11.536Z,14.2
2022-10-18T17:56:43.658Z,14
2022-10-18T18:11:22.097Z,13.8
2022-10-18T18:25:57.315Z,13.5
2022-10-18T18:40:26.495Z,13.5
2022-10-18T18:54:58.087Z,13
2022-10-18T19:09:31.431Z,13.2
2022-10-18T19:24:04.713Z,12.8
2022-10-18T19:38:37.036Z,12.7
2022-10-18T19:53:09.665Z,12.3
2022-10-18T20:07:41.296Z,11.7
2022-10-18T20:22:15.684Z,12.2
2022-10-18T20:36:49.194Z,12.1
2022-10-18T20:51:21.773Z,11.5
2022-10-18T21:05:55.493Z,11.7
2022-10-18T21:20:28.576Z,11
2022-10-18T21:35:06.535Z,10.9
2022-10-18T21:49:42.536Z,10.5
2022-10-18T22:04:09.922Z,10.6
2022-10-18T22:18:43.163Z,9.8
2022-10-18T22:33:21.776Z,10.2
2022-10-18T22:47:56.765Z,9.4
2022-10-18T23:02:24.874Z,9.5
2022-10-18T23:16:59.633Z,10.1
2022-10-18T23:31:32.257Z,9.5
2022-10-18T23:46:03.353Z,8.7
